地図

経路データ

SID SEASON NUMBER BASIN SUBBASIN NAME ISO_TIME NATURE LAT LON WMO_WIND WMO_PRES WMO_AGENCY TRACK_TYPE DIST2LAND LANDFALL IFLAG USA_AGENCY USA_ATCF_ID USA_LAT USA_LON USA_RECORD USA_STATUS USA_WIND USA_PRES USA_SSHS USA_R34_NE USA_R34_SE USA_R34_SW USA_R34_NW USA_R50_NE USA_R50_SE USA_R50_SW USA_R50_NW USA_R64_NE USA_R64_SE USA_R64_SW USA_R64_NW USA_POCI USA_ROCI USA_RMW USA_EYE TOKYO_LAT TOKYO_LON TOKYO_GRADE TOKYO_WIND TOKYO_PRES TOKYO_R50_DIR TOKYO_R50_LONG TOKYO_R50_SHORT TOKYO_R30_DIR TOKYO_R30_LONG TOKYO_R30_SHORT TOKYO_LAND CMA_LAT CMA_LON CMA_CAT CMA_WIND CMA_PRES HKO_LAT HKO_LON HKO_CAT HKO_WIND HKO_PRES NEWDELHI_LAT NEWDELHI_LON NEWDELHI_GRADE NEWDELHI_WIND NEWDELHI_PRES NEWDELHI_CI NEWDELHI_DP NEWDELHI_POCI REUNION_LAT REUNION_LON REUNION_TYPE REUNION_WIND REUNION_PRES REUNION_TNUM REUNION_CI REUNION_RMW REUNION_R34_NE REUNION_R34_SE REUNION_R34_SW REUNION_R34_NW REUNION_R50_NE REUNION_R50_SE REUNION_R50_SW REUNION_R50_NW REUNION_R64_NE REUNION_R64_SE REUNION_R64_SW REUNION_R64_NW BOM_LAT BOM_LON BOM_TYPE BOM_WIND BOM_PRES BOM_TNUM BOM_CI BOM_RMW BOM_R34_NE BOM_R34_SE BOM_R34_SW BOM_R34_NW BOM_R50_NE BOM_R50_SE BOM_R50_SW BOM_R50_NW BOM_R64_NE BOM_R64_SE BOM_R64_SW BOM_R64_NW BOM_ROCI BOM_POCI BOM_EYE BOM_POS_METHOD BOM_PRES_METHOD NADI_LAT NADI_LON NADI_CAT NADI_WIND NADI_PRES WELLINGTON_LAT WELLINGTON_LON WELLINGTON_WIND WELLINGTON_PRES DS824_LAT DS824_LON DS824_STAGE DS824_WIND DS824_PRES TD9636_LAT TD9636_LON TD9636_STAGE TD9636_WIND TD9636_PRES TD9635_LAT TD9635_LON TD9635_WIND TD9635_PRES TD9635_ROCI NEUMANN_LAT NEUMANN_LON NEUMANN_CLASS NEUMANN_WIND NEUMANN_PRES MLC_LAT MLC_LON MLC_CLASS MLC_WIND MLC_PRES USA_GUST BOM_GUST BOM_GUST_PER REUNION_GUST REUNION_GUST_PER USA_SEAHGT USA_SEARAD_NE USA_SEARAD_SE USA_SEARAD_SW USA_SEARAD_NW STORM_SPEED STORM_DIR
2021150N06135 2021 26 WP MM CHOI-WAN 2021-05-29 18:00:00 TS 6.40000 134.500 PROVISIONAL 777 757 O_____________ tcvitals WP042021 6.40000 134.500 25 1004 -1 1006 150 30 6 290
2021150N06135 2021 26 WP MM CHOI-WAN 2021-05-29 21:00:00 TS 6.51245 134.198 PROVISIONAL 757 728 P_____________ WP042021 6.51245 134.198 27 1003 -1 1006 138 30 7 286
2021150N06135 2021 26 WP MM CHOI-WAN 2021-05-30 00:00:00 TS 6.60000 133.800 PROVISIONAL 728 686 O_____________ tcvitals WP042021 6.60000 133.800 29 1002 -1 1006 126 30 9 278
2021150N06135 2021 26 WP MM CHOI-WAN 2021-05-30 03:00:00 TS 6.65009 133.257 PROVISIONAL 694 646 P_____________ WP042021 6.65009 133.257 29 1001 -1 1005 123 30 11 275
2021150N06135 2021 26 WP MM CHOI-WAN 2021-05-30 06:00:00 TS 6.70000 132.700 PROVISIONAL 646 617 O_____________ tcvitals WP042021 6.70000 132.700 29 1000 -1 1004 120 30 10 277
2021150N06135 2021 26 WP MM CHOI-WAN 2021-05-30 09:00:00 TS 6.76620 132.259 PROVISIONAL 625 587 P_____________ WP042021 6.76245 132.255 32 1000 -1 1004 120 30 8 284
2021150N06135 2021 26 WP MM CHOI-WAN 2021-05-30 12:00:00 TS 6.90000 131.900 PROVISIONAL 587 552 O_____________ tcvitals WP042021 6.90000 131.900 35 1000 0 40 50 65 45 1004 120 30 45 7 300
2021150N06135 2021 26 WP MM CHOI-WAN 2021-05-30 15:00:00 TS 7.14118 131.617 PROVISIONAL 552 529 P_____________ WP042021 7.18492 131.642 40 994 -1 40 52 65 50 1004 162 30 8 315
2021150N06135 2021 26 WP MM CHOI-WAN 2021-05-30 18:00:00 TS 7.45000 131.350 PROVISIONAL 529 485 O_____________ tcvitals WP042021 7.50000 131.400 45 989 0 40 55 65 55 1005 205 30 8 316
2021150N06135 2021 26 WP MM CHOI-WAN 2021-05-30 21:00:00 TS 7.74871 131.026 PROVISIONAL 485 453 P_____________ WP042021 7.66245 131.087 48 987 -1 42 65 65 65 1006 207 22 10 313
2021150N06135 2021 26 WP MM CHOI-WAN 2021-05-31 00:00:00 TS 8.10000 130.650 PROVISIONAL 454 406 O_____________ tcvitals WP042021 7.90000 130.700 51 986 0 45 75 65 75 1007 210 14 12 315
2021150N06135 2021 26 WP MM CHOI-WAN 2021-05-31 03:00:00 TS 8.56506 130.196 PROVISIONAL 409 377 P_____________ WP042021 8.45012 130.193 51 989 -1 47 75 82 80 1006 210 14 13 315
2021150N06135 2021 26 WP MM CHOI-WAN 2021-05-31 06:00:00 TS 9.00000 129.750 PROVISIONAL 381 345 O_____________ tcvitals WP042021 9.00000 129.700 51 993 0 50 75 100 85 1005 210 14 10 312
2021150N06135 2021 26 WP MM CHOI-WAN 2021-05-31 09:00:00 TS 9.26237 129.417 PROVISIONAL 345 314 P_____________ WP042021 9.24485 129.377 51 993 -1 55 75 105 65 1005 205 14 8 305
2021150N06135 2021 26 WP MM CHOI-WAN 2021-05-31 12:00:00 TS 9.45000 129.100 PROVISIONAL 317 280 O_____________ tcvitals WP042021 9.40000 129.100 51 994 0 60 75 110 45 1006 200 14 8 301
2021150N06135 2021 26 WP MM CHOI-WAN 2021-05-31 15:00:00 TS 9.66494 128.726 PROVISIONAL 280 240 P_____________ WP042021 9.66488 128.788 48 995 -1 60 70 95 57 1005 175 17 9 297
2021150N06135 2021 26 WP MM CHOI-WAN 2021-05-31 18:00:00 TS 9.85000 128.300 PROVISIONAL 243 192 O_____________ tcvitals WP042021 9.90000 128.400 45 996 0 60 65 80 70 1005 150 20 10 286
2021150N06135 2021 26 WP MM CHOI-WAN 2021-05-31 21:00:00 TS 9.93011 127.785 PROVISIONAL 192 157 P_____________ WP042021 9.96270 127.842 42 997 -1 57 57 60 60 1005 150 20 10 284
2021150N06135 2021 26 WP MM CHOI-WAN 2021-06-01 00:00:00 TS 10.1000 127.300 PROVISIONAL 157 142 O_____________ tcvitals WP042021 10.1000 127.300 39 999 0 55 50 40 50 1005 150 20 10 310
2021150N06135 2021 26 WP MM CHOI-WAN 2021-06-01 03:00:00 TS 10.5697 127.011 PROVISIONAL 138 98 P_____________ WP042021 10.5622 126.992 37 1000 -1 55 50 45 52 1005 147 20 12 329
2021150N06135 2021 26 WP MM CHOI-WAN 2021-06-01 06:00:00 TS 11.1000 126.700 PROVISIONAL 98 66 O_____________ tcvitals WP042021 11.1000 126.700 35 1001 0 55 50 50 55 1005 145 20 12 319
2021150N06135 2021 26 WP MM CHOI-WAN 2021-06-01 09:00:00 TS 11.4811 126.200 PROVISIONAL 66 10 P_____________ WP042021 11.5098 126.268 32 1002 -1 1006 142 20 13 300
2021150N06135 2021 26 WP MM CHOI-WAN 2021-06-01 12:00:00 TS 11.7500 125.550 PROVISIONAL 15 0 O_____________ tcvitals WP042021 11.8000 125.700 29 1003 -1 1007 140 20 14 286
2021150N06135 2021 26 WP MM CHOI-WAN 2021-06-01 15:00:00 TS 11.8712 124.787 PROVISIONAL 0 0 P_____________ WP042021 11.8998 125.017 29 1002 -1 1006 150 20 16 279
2021150N06135 2021 26 WP MM CHOI-WAN 2021-06-01 18:00:00 TS 12.0000 123.950 PROVISIONAL 0 0 O_____________ tcvitals WP042021 12.0000 124.200 29 1001 -1 1005 160 20 17 285
2021150N06135 2021 26 WP MM CHOI-WAN 2021-06-01 21:00:00 TS 12.3240 123.065 PROVISIONAL 15 15 P_____________ WP042021 12.3207 123.198 29 1001 -1 1005 140 20 18 293
2021150N06135 2021 26 WP MM CHOI-WAN 2021-06-02 00:00:00 TS 12.7000 122.300 PROVISIONAL 64 43 O_____________ tcvitals WP042021 12.7000 122.300 29 1002 -1 1005 120 20 14 300
2021150N06135 2021 26 WP MM CHOI-WAN 2021-06-02 03:00:00 TS 13.0145 121.836 PROVISIONAL 32 15 P_____________ WP042021 13.0144 121.817 29 1001 -1 1005 120 20 10 308
2021150N06135 2021 26 WP MM CHOI-WAN 2021-06-02 06:00:00 TS 13.3000 121.500 PROVISIONAL 15 10 O_____________ tcvitals WP042021 13.3000 121.500 29 1000 -1 1005 120 20 9 305
2021150N06135 2021 26 WP MM CHOI-WAN 2021-06-02 09:00:00 TS 13.5124 121.107 PROVISIONAL 11 0 P_____________ WP042021 13.5124 121.107 29 1001 -1 1006 120 20 9 303
2021150N06135 2021 26 WP MM CHOI-WAN 2021-06-02 12:00:00 TS 13.8000 120.700 PROVISIONAL 0 0 O_____________ tcvitals WP042021 13.8000 120.700 29 1003 -1 1007 120 20 12 312
2021150N06135 2021 26 WP MM CHOI-WAN 2021-06-02 15:00:00 TS 14.2826 120.220 PROVISIONAL 31 21 P_____________ WP042021 14.2826 120.220 29 1003 -1 1006 177 32 14 322
2021150N06135 2021 26 WP MM CHOI-WAN 2021-06-02 18:00:00 TS 14.9000 119.800 PROVISIONAL 32 21 O_____________ tcvitals WP042021 14.9000 119.800 29 1003 -1 1006 235 45 14 336
2021150N06135 2021 26 WP MM CHOI-WAN 2021-06-02 21:00:00 TS 15.5922 119.607 PROVISIONAL 34 21 P_____________ WP042021 15.5922 119.607 32 1001 -1 1006 207 45 15 345
2021150N06135 2021 26 WP MM CHOI-WAN 2021-06-03 00:00:00 TS 16.3000 119.400 PROVISIONAL 42 42 O_____________ tcvitals WP042021 16.3000 119.400 35 1000 0 20 15 50 30 1007 180 45 15 333
2021150N06135 2021 26 WP MM CHOI-WAN 2021-06-03 03:00:00 TS 16.9229 118.886 PROVISIONAL 117 117 P_____________ WP042021 16.9229 118.886 35 1001 -1 30 35 1006 172 42 15 321
2021150N06135 2021 26 WP MM CHOI-WAN 2021-06-03 06:00:00 TS 17.5000 118.400 PROVISIONAL 200 200 O_____________ tcvitals WP042021 17.5000 118.400 35 1003 0 40 55 1006 165 40 13 330
2021150N06135 2021 26 WP MM CHOI-WAN 2021-06-03 09:00:00 TS 18.0723 118.202 PROVISIONAL 229 229 P_____________ WP042021 18.0723 118.202 35 1002 -1 50 57 1005 155 40 11 350
2021150N06135 2021 26 WP MM CHOI-WAN 2021-06-03 12:00:00 TS 18.6000 118.200 PROVISIONAL 248 248 O_____________ tcvitals WP042021 18.6000 118.200 35 1002 0 60 60 1005 145 40 10 6
2021150N06135 2021 26 WP MM CHOI-WAN 2021-06-03 15:00:00 TS 19.0725 118.312 PROVISIONAL 254 247 P_____________ WP042021 19.0725 118.312 35 999 -1 57 57 1004 107 47 9 17
2021150N06135 2021 26 WP MM CHOI-WAN 2021-06-03 18:00:00 TS 19.5000 118.500 PROVISIONAL 252 252 O_____________ tcvitals WP042021 19.5000 118.500 35 997 0 55 55 115 100 1004 70 55 9 19
2021150N06135 2021 26 WP MM CHOI-WAN 2021-06-03 21:00:00 TS 19.9148 118.613 PROVISIONAL 268 266 P_____________ WP042021 19.9148 118.613 35 997 -1 50 50 110 95 1004 110 50 9 19
2021150N06135 2021 26 WP MM CHOI-WAN 2021-06-04 00:00:00 TS 20.3000 118.800 PROVISIONAL 266 220 O_____________ tcvitals WP042021 20.3000 118.800 35 997 0 45 45 105 90 1005 150 45 9 34
2021150N06135 2021 26 WP MM CHOI-WAN 2021-06-04 03:00:00 TS 20.6360 119.123 PROVISIONAL 220 151 P_____________ WP042021 20.6374 119.143 32 998 -1 1004 112 52 10 47
2021150N06135 2021 26 WP MM CHOI-WAN 2021-06-04 06:00:00 TS 21.0000 119.600 PROVISIONAL 151 76 O_____________ tcvitals WP042021 21.0000 119.600 29 999 -1 1003 75 60 13 51
2021150N06135 2021 26 WP MM CHOI-WAN 2021-06-04 09:00:00 TS 21.4526 120.221 PROVISIONAL 68 0 P_____________ WP042021 21.4422 120.087 -1 1004 75 60 16 52
2021150N06135 2021 26 WP MM CHOI-WAN 2021-06-04 12:00:00 TS 21.9860 120.971 PROVISIONAL 10 10 O_____________ tcvitals WP042021 21.9673 120.666 -1 1006 75 60 18 51
2021150N06135 2021 26 WP MM CHOI-WAN 2021-06-04 15:00:00 TS 22.5701 121.730 PROVISIONAL 60 60 P_____________ WP042021 22.5604 121.319 -1 1006 72 60 19 49
2021150N06135 2021 26 WP MM CHOI-WAN 2021-06-04 18:00:00 TS 23.2033 122.497 PROVISIONAL 112 112 O_____________ tcvitals WP042021 23.2167 122.083 -1 1006 70 60 19 46
2021150N06135 2021 26 WP MM CHOI-WAN 2021-06-04 21:00:00 TS 23.8613 123.200 PROVISIONAL 147 147 P_____________ WP042021 23.8742 122.942 -1 1005 70 55 19 43
2021150N06135 2021 26 WP MM CHOI-WAN 2021-06-05 00:00:00 TS 24.6000 123.900 PROVISIONAL 196 196 O_____________ tcgp WP042021 24.6000 123.900 TS 35 1001 0 45 50 35 55 1004 70 50 22 44
2021150N06135 2021 26 WP MM CHOI-WAN 2021-06-05 03:00:00 TS 25.4347 124.860 PROVISIONAL 294 294 P_____________ WP042021 25.4328 124.900 TS 35 1001 0 60 52 35 55 1004 85 42 26 48
2021150N06135 2021 26 WP MM CHOI-WAN 2021-06-05 06:00:00 TS 26.3000 126.000 PROVISIONAL 426 426 O_____________ tcgp WP042021 26.3000 126.000 TS 35 1001 0 75 55 35 55 1004 100 35 27 52
2021150N06135 2021 26 WP MM CHOI-WAN 2021-06-05 09:00:00 TS 27.0759 127.179 PROVISIONAL 542 407 P_____________ WP042021 27.0759 127.179 TS 30 1001 -1 1004 100 35 27 54
2021150N06135 2021 26 WP MM CHOI-WAN 2021-06-05 12:00:00 TS 27.9000 128.500 PROVISIONAL 403 257 O_____________ tcgp WP042021 27.9000 128.500 TD 25 1002 -1 1004 100 35 31 54
2021150N06135 2021 26 WP MM CHOI-WAN 2021-06-05 15:00:00 TS 28.8767 129.991 PROVISIONAL 243 149 P_____________ WP042021 28.8767 129.991 TD 22 1003 -1 1005 100 35 34 54
2021150N06135 2021 26 WP MM CHOI-WAN 2021-06-05 18:00:00 NR 29.9000 131.600 PROVISIONAL 149 144 O_____________ tcgp WP042021 29.9000 131.600 DB 20 1005 -3 1007 100 35 34 55
2021150N06135 2021 26 WP MM CHOI-WAN 2021-06-05 21:00:00 NR 30.8246 133.204 PROVISIONAL 183 173 P_____________ WP042021 30.8246 133.204 DB 20 1005 -3 1007 100 35 34 56
2021150N06135 2021 26 WP MM CHOI-WAN 2021-06-06 00:00:00 NR 31.8000 134.900 PROVISIONAL 169 90 O_____________ tcgp WP042021 31.8000 134.900 DB 20 1006 -3 1008 100 35 37 55
2021150N06135 2021 26 WP MM CHOI-WAN 2021-06-06 03:00:00 NR 32.9143 136.742 PROVISIONAL 99 69 P_____________ WP042021 32.9143 136.742 DB 20 1006 -3 1008 100 35 39 54
2021150N06135 2021 26 WP MM CHOI-WAN 2021-06-06 06:00:00 NR 34.1000 138.700 PROVISIONAL 56 O_____________ tcgp WP042021 34.1000 138.700 DB 20 1007 -3 1008 100 35 40 54

デジタル台風データ・検索

IBTrACS Databaseについて

本データベースは、米国NOAAが公開する1842年以降の世界の熱帯低気圧のベストトラックデータアーカイブInternational Best Track Archive for Climate Stewardship (IBTrACS)を、ウェブで閲覧しやすい形式に変換したものです。

最終更新日:2021-12-03